Vandenberg Air Force Base
KVBG : rendu visible

Aérodrome :











RETROUVEZ-NOUS SUR...

 
LOGIN :

S'inscrire | Disclaimer

   EN    FR    IT 

 









Légende :    VFR   VFR Marginal   IFR   IFR Intensif   IFR Très Intensif
Visi : 
Plafond : 
>= 8 km
>= 3000ft
5 à 8 km
1000 à 3000 ft
1500m à 5 km
500 à 1000 ft
800 à 1500m
200 à 500 ft
< 800m
< 200 ft
Symboles :   Orages  Brouillard  Fortes neiges  Fortes précipitations  Vent > 20 kt






- Altitude de l'aérodrome : 369 ft


KVBG - Vandenberg Air Force Base

DERNIER METAR :
  • 290643Z AUTO 01012KT 10SM FEW015 OVC160 11/09 A3014 RMK AO2 SLP210

METARs EXPIRÉS :
  • 290613Z AUTO 36010KT 10SM SCT014 BKN019 BKN120 BKN180 12/09 A3015 RMK AO2 CIG 014V020 SLP213 $
  • 290558Z AUTO 35010KT 10SM FEW014 SCT020 BKN120 BKN180 12/09 A3015 RMK AO2 CIG 016 RWY12 SLP213 T01160091 10143 20114 $
  • 290458Z AUTO 35012KT 10SM OVC055 12/09 A3015 RMK AO2 SLP213 T01170087 $
  • 290358Z AUTO 01011KT 10SM BKN120 OVC140 12/09 A3013 RMK AO2 SLP206 T01150087 $

Prévision TAF périmée.



MET'MAP, la Météo Aéronautique d'un coup d'oeil ! - Copyright ORBIFLY Décembre 2007 - Disclaimer

ORBIFLY MET'MAP TEAM :

Programmation & Développement : Alexandra Zaïnal
Sur une idée originale de : Baudouin d'Aumeries
Assistance à la programmation : Marc-Olivier Méhu
Soutien technique & logistique : Manuel Goepfert

Contact : metmap@orbifly.com




SOURCES & CREDITS :

   NOAA       Earth
Advisory